createdAt,value
2018-03-14T00:00:00.694Z,96654
2018-03-14T00:02:27.381Z,96657
2018-03-14T00:04:54.094Z,96661
2018-03-14T00:07:20.836Z,96662
2018-03-14T00:09:47.526Z,96666
2018-03-14T00:12:14.223Z,96677
2018-03-14T00:14:40.982Z,96677
2018-03-14T00:17:07.700Z,96674
2018-03-14T00:19:34.401Z,96684
2018-03-14T00:22:01.123Z,96680
2018-03-14T00:24:27.828Z,96672
2018-03-14T00:26:54.538Z,96669
2018-03-14T00:29:22.003Z,96668
2018-03-14T00:31:49.473Z,96667
2018-03-14T00:34:16.942Z,96669
2018-03-14T00:36:43.659Z,96667
2018-03-14T00:39:11.166Z,96664
2018-03-14T00:41:37.874Z,96666
2018-03-14T00:44:05.348Z,96664
2018-03-14T00:46:32.050Z,96661
2018-03-14T00:48:58.764Z,96669
2018-03-14T00:51:25.471Z,96667
2018-03-14T00:53:52.902Z,96658
2018-03-14T00:56:19.628Z,96660
2018-03-14T00:58:47.096Z,96664
2018-03-14T01:01:13.812Z,96660
2018-03-14T01:03:40.541Z,96658
2018-03-14T01:06:07.291Z,96666
2018-03-14T01:08:34.009Z,96659
2018-03-14T01:11:01.489Z,96656
2018-03-14T01:13:28.195Z,96654
2018-03-14T01:15:54.902Z,96654
2018-03-14T01:18:21.622Z,96655
2018-03-14T01:20:48.355Z,96657
2018-03-14T01:23:15.061Z,96658
2018-03-14T01:25:41.792Z,96659
2018-03-14T01:28:08.589Z,96662
2018-03-14T01:30:35.320Z,96656
2018-03-14T01:33:02.795Z,96649
2018-03-14T01:35:29.524Z,96648
2018-03-14T01:37:56.986Z,96647
2018-03-14T01:40:24.494Z,96647
2018-03-14T01:42:51.239Z,96646
2018-03-14T01:45:17.958Z,96643
2018-03-14T01:47:44.685Z,96641
2018-03-14T01:50:12.244Z,96640
2018-03-14T01:52:39.710Z,96644
2018-03-14T01:55:06.418Z,96649
2018-03-14T01:57:33.156Z,96652
2018-03-14T01:59:59.858Z,96651
2018-03-14T02:02:26.543Z,96648
2018-03-14T02:04:53.263Z,96650
2018-03-14T02:07:19.999Z,96645
2018-03-14T02:09:46.711Z,96639
2018-03-14T02:12:14.167Z,96641
2018-03-14T02:14:41.631Z,96645
2018-03-14T02:17:09.081Z,96639
2018-03-14T02:19:35.792Z,96646
2018-03-14T02:22:02.546Z,96642
2018-03-14T02:24:29.277Z,96638
2018-03-14T02:26:56.752Z,96632
2018-03-14T02:29:23.529Z,96631
2018-03-14T02:31:51.017Z,96626
2018-03-14T02:34:17.743Z,96627
2018-03-14T02:37:03.931Z,96628
2018-03-14T02:39:30.681Z,96629
2018-03-14T02:41:58.129Z,96629
2018-03-14T02:44:24.822Z,96628
2018-03-14T02:46:51.563Z,96630
2018-03-14T02:49:18.244Z,96634
2018-03-14T02:51:44.936Z,96631
2018-03-14T02:54:12.387Z,96633
2018-03-14T02:56:39.810Z,96635
2018-03-14T02:59:06.532Z,96638
2018-03-14T03:01:33.250Z,96643
2018-03-14T03:04:00.678Z,96646
2018-03-14T03:06:27.374Z,96652
2018-03-14T03:08:54.070Z,96654
2018-03-14T03:11:20.757Z,96657
2018-03-14T03:13:47.454Z,96654
2018-03-14T03:16:14.157Z,96652
2018-03-14T03:18:40.835Z,96654
2018-03-14T03:21:07.560Z,96656
2018-03-14T03:23:34.287Z,96655
2018-03-14T03:26:00.978Z,96657
2018-03-14T03:28:27.639Z,96659
2018-03-14T03:30:55.072Z,96658
2018-03-14T03:33:21.754Z,96655
2018-03-14T03:35:48.451Z,96654
2018-03-14T03:38:15.178Z,96657
2018-03-14T03:40:41.913Z,96659
2018-03-14T03:43:08.624Z,96661
2018-03-14T03:45:35.311Z,96665
2018-03-14T03:48:01.996Z,96664
2018-03-14T03:50:29.487Z,96667
2018-03-14T03:52:56.198Z,96666
2018-03-14T03:55:23.649Z,96671
2018-03-14T03:57:50.374Z,96668
2018-03-14T04:00:17.095Z,96670
2018-03-14T04:02:43.762Z,96671
2018-03-14T04:05:10.454Z,96663
2018-03-14T04:07:37.159Z,96660
2018-03-14T04:10:03.911Z,96662
2018-03-14T04:12:30.628Z,96665
2018-03-14T04:14:57.303Z,96666
2018-03-14T04:17:24.784Z,96663
2018-03-14T04:19:52.203Z,96661
2018-03-14T04:22:18.936Z,96670
2018-03-14T04:24:45.623Z,96670
2018-03-14T04:27:13.063Z,96676
2018-03-14T04:29:39.767Z,96676
2018-03-14T04:32:06.450Z,96671
2018-03-14T04:34:33.128Z,96669
2018-03-14T04:36:59.862Z,96668
2018-03-14T04:39:27.288Z,96667
2018-03-14T04:41:54.009Z,96664
2018-03-14T04:44:20.688Z,96664
2018-03-14T04:46:47.351Z,96668
2018-03-14T04:49:14.797Z,96673
2018-03-14T04:51:41.473Z,96675
2018-03-14T04:54:08.172Z,96678
2018-03-14T04:56:34.901Z,96674
2018-03-14T04:59:01.608Z,96677
2018-03-14T05:01:28.295Z,96681
2018-03-14T05:03:54.982Z,96685
2018-03-14T05:06:21.688Z,96687
2018-03-14T05:08:48.405Z,96690
2018-03-14T05:11:15.077Z,96691
2018-03-14T05:13:41.805Z,96695
2018-03-14T05:16:08.561Z,96696
2018-03-14T05:18:35.266Z,96700
2018-03-14T05:21:01.959Z,96702
2018-03-14T05:23:28.654Z,96705
2018-03-14T05:25:55.407Z,96703
2018-03-14T05:28:22.077Z,96705
2018-03-14T05:30:48.802Z,96704
2018-03-14T05:33:15.535Z,96705
2018-03-14T05:35:42.209Z,96710
2018-03-14T05:38:08.949Z,96716
2018-03-14T05:40:35.681Z,96720
2018-03-14T05:43:02.409Z,96721
2018-03-14T05:45:29.118Z,96728
2018-03-14T05:47:56.560Z,96726
2018-03-14T05:50:24.006Z,96732
2018-03-14T05:52:50.673Z,96729
2018-03-14T05:55:18.102Z,96737
2018-03-14T05:57:44.866Z,96735
2018-03-14T06:00:11.615Z,96739
2018-03-14T06:02:38.325Z,96745
2018-03-14T06:05:05.033Z,96743
2018-03-14T06:07:31.745Z,96742
2018-03-14T06:09:59.218Z,96738
2018-03-14T06:12:26.662Z,96754
2018-03-14T06:14:53.352Z,96755
2018-03-14T06:17:20.076Z,96764
2018-03-14T06:19:46.771Z,96779
2018-03-14T06:22:13.450Z,97321
2018-03-14T06:24:40.942Z,97499
2018-03-14T06:27:08.596Z,97494
2018-03-14T06:29:36.007Z,96959
2018-03-14T06:32:02.734Z,96811
2018-03-14T06:34:29.462Z,97184
2018-03-14T06:36:56.169Z,96896
2018-03-14T06:39:23.653Z,96798
2018-03-14T06:41:50.415Z,96866
2018-03-14T06:44:17.167Z,96791
2018-03-14T06:46:43.944Z,97054
2018-03-14T06:49:10.627Z,96833
2018-03-14T06:51:37.394Z,96951
2018-03-14T06:54:04.103Z,97125
2018-03-14T06:56:31.523Z,97219
2018-03-14T07:12:30.482Z,96845
2018-03-14T07:14:57.161Z,96840
2018-03-14T07:17:24.684Z,96844
2018-03-14T07:19:52.466Z,96845
2018-03-14T07:22:19.214Z,96852
2018-03-14T07:24:46.675Z,96844
2018-03-14T07:27:14.124Z,96843
2018-03-14T07:29:40.806Z,96845
2018-03-14T07:32:07.490Z,96850
2018-03-14T07:34:35.682Z,96858
2018-03-14T07:37:02.382Z,96866
2018-03-14T07:39:29.086Z,96862
2018-03-14T07:41:56.536Z,96870
2018-03-14T07:44:23.283Z,96876
2018-03-14T07:46:50.021Z,96885
2018-03-14T07:49:16.737Z,96882
2018-03-14T07:51:44.188Z,96883
2018-03-14T07:54:10.873Z,96877
2018-03-14T07:56:37.587Z,96865
2018-03-14T07:59:04.343Z,96863
2018-03-14T08:01:31.776Z,96862
2018-03-14T08:03:58.501Z,96862
2018-03-14T08:06:25.218Z,96859
2018-03-14T08:08:51.905Z,96860
2018-03-14T08:11:18.602Z,96849
2018-03-14T08:13:45.410Z,96845
2018-03-14T08:16:12.095Z,96848
2018-03-14T08:18:38.799Z,96853
2018-03-14T08:21:06.260Z,96850
2018-03-14T08:23:33.711Z,96846
2018-03-14T08:26:07.398Z,96851
2018-03-14T08:28:34.101Z,96846
2018-03-14T08:31:00.896Z,96841
2018-03-14T08:33:27.569Z,96855
2018-03-14T08:35:55.009Z,96855
2018-03-14T08:38:21.697Z,96850
2018-03-14T08:40:48.426Z,96853
2018-03-14T08:43:15.158Z,96854
2018-03-14T08:45:42.579Z,96849
2018-03-14T08:48:09.327Z,96841
2018-03-14T08:50:36.027Z,96848
2018-03-14T08:53:02.836Z,96846
2018-03-14T08:55:29.546Z,96849
2018-03-14T08:57:56.998Z,96853
2018-03-14T09:00:23.703Z,96849
2018-03-14T09:02:51.125Z,96845
2018-03-14T09:05:18.552Z,96847
2018-03-14T09:07:45.223Z,96851
2018-03-14T09:10:11.895Z,96855
2018-03-14T09:12:39.367Z,96856
2018-03-14T09:15:06.910Z,96850
2018-03-14T09:17:34.371Z,96855
2018-03-14T09:20:01.078Z,96855
2018-03-14T09:22:27.754Z,96842
2018-03-14T09:24:54.511Z,96851
2018-03-14T09:27:22.077Z,96855
2018-03-14T09:29:49.530Z,96858
2018-03-14T09:32:16.268Z,96862
2018-03-14T09:34:42.998Z,96873
2018-03-14T09:37:09.705Z,96870
2018-03-14T09:39:36.468Z,96868
2018-03-14T09:42:03.245Z,96870
2018-03-14T09:44:29.985Z,96876
2018-03-14T09:46:56.750Z,96873
2018-03-14T09:49:24.185Z,96866
2018-03-14T09:51:50.878Z,96866
2018-03-14T09:54:17.576Z,96864
2018-03-14T09:56:44.272Z,96860
2018-03-14T09:59:10.994Z,96857
2018-03-14T10:01:38.429Z,96859
2018-03-14T10:04:05.147Z,96861
2018-03-14T10:06:31.873Z,96870
2018-03-14T10:08:58.563Z,96862
2018-03-14T10:11:25.311Z,96860
2018-03-14T10:13:52.021Z,96859
2018-03-14T10:16:18.727Z,96867
2018-03-14T10:18:46.195Z,96861
2018-03-14T10:21:13.656Z,96877
2018-03-14T10:23:40.335Z,96890
2018-03-14T10:26:07.069Z,96889
2018-03-14T10:28:33.824Z,96862
2018-03-14T10:31:01.334Z,96866
2018-03-14T10:33:28.845Z,96874
2018-03-14T10:35:55.547Z,96871
2018-03-14T10:38:23.028Z,96832
2018-03-14T10:40:49.759Z,96827
2018-03-14T10:43:16.491Z,96818
2018-03-14T10:45:43.928Z,96818
2018-03-14T10:48:10.625Z,96819
2018-03-14T10:50:37.348Z,96834
2018-03-14T10:53:04.067Z,96833
2018-03-14T10:55:30.745Z,96826
2018-03-14T10:57:57.456Z,96825
2018-03-14T11:00:26.746Z,96828
2018-03-14T11:02:59.600Z,96816
2018-03-14T11:05:26.329Z,96814
2018-03-14T11:07:53.184Z,96819
2018-03-14T11:10:19.927Z,96812
2018-03-14T11:12:46.622Z,96807
2018-03-14T11:15:13.314Z,96804
2018-03-14T11:17:40.002Z,96806
2018-03-14T11:20:06.718Z,96802
2018-03-14T11:22:33.418Z,96804
2018-03-14T11:25:01.149Z,96806
2018-03-14T11:27:27.847Z,96803
2018-03-14T11:29:54.593Z,96798
2018-03-14T11:32:21.303Z,96811
2018-03-14T11:34:48.729Z,96822
2018-03-14T11:37:15.419Z,96824
2018-03-14T11:39:42.894Z,96821
2018-03-14T11:42:09.596Z,96830
2018-03-14T11:44:36.299Z,96831
2018-03-14T11:47:03.074Z,96784
2018-03-14T11:49:29.828Z,96793
2018-03-14T11:51:56.543Z,96786
2018-03-14T11:54:23.278Z,96777
2018-03-14T11:56:49.975Z,96777
2018-03-14T11:59:17.432Z,96767
2018-03-14T12:01:44.920Z,96769
2018-03-14T12:04:11.619Z,96763
2018-03-14T12:06:38.309Z,96759
2018-03-14T12:09:05.041Z,96758
2018-03-14T12:11:31.742Z,96753
2018-03-14T12:13:58.450Z,96759
2018-03-14T12:16:25.170Z,96753
2018-03-14T12:18:51.882Z,96746
2018-03-14T12:21:18.657Z,96743
2018-03-14T12:23:46.103Z,96740
2018-03-14T12:26:13.612Z,96735
2018-03-14T12:28:40.273Z,96736
2018-03-14T12:31:06.959Z,96735
2018-03-14T12:33:34.412Z,96734
2018-03-14T12:36:01.844Z,96737
2018-03-14T12:38:28.569Z,96725
2018-03-14T12:40:55.310Z,96728
2018-03-14T12:43:22.016Z,96724
2018-03-14T12:45:49.512Z,96725
2018-03-14T12:48:16.225Z,96718
2018-03-14T12:50:43.725Z,96716
2018-03-14T12:53:10.426Z,96711
2018-03-14T12:55:37.887Z,96713
2018-03-14T12:58:05.348Z,96714
2018-03-14T13:00:32.031Z,96713
2018-03-14T13:02:58.681Z,96711
2018-03-14T13:05:25.413Z,96706
2018-03-14T13:07:52.110Z,96700
2018-03-14T13:10:19.531Z,96695
2018-03-14T13:12:46.225Z,96697
2018-03-14T13:15:13.650Z,96692
2018-03-14T13:17:40.372Z,96696
2018-03-14T13:20:07.085Z,96695
2018-03-14T13:22:33.771Z,96689
2018-03-14T13:25:00.442Z,96689
2018-03-14T13:27:27.114Z,96687
2018-03-14T13:29:53.818Z,96692
2018-03-14T13:32:20.553Z,96700
2018-03-14T13:34:47.220Z,96691
2018-03-14T13:37:14.696Z,96695
2018-03-14T13:39:42.133Z,96688
2018-03-14T13:42:08.814Z,96688
2018-03-14T13:44:35.492Z,96677
2018-03-14T13:47:02.239Z,96680
2018-03-14T13:49:28.936Z,96683
2018-03-14T13:51:55.630Z,96682
2018-03-14T13:54:22.357Z,96677
2018-03-14T13:56:49.088Z,96698
2018-03-14T13:59:15.778Z,96696
2018-03-14T14:01:42.497Z,96690
2018-03-14T14:04:09.190Z,96687
2018-03-14T14:06:36.595Z,96682
2018-03-14T14:09:03.480Z,96675
2018-03-14T14:11:30.165Z,96679
2018-03-14T14:13:56.824Z,96662
2018-03-14T14:16:23.543Z,96665
2018-03-14T14:18:50.232Z,96665
2018-03-14T14:21:16.944Z,96662
2018-03-14T14:23:43.630Z,96658
2018-03-14T14:26:10.335Z,96658
2018-03-14T14:28:37.130Z,96657
2018-03-14T14:31:04.587Z,96652
2018-03-14T14:33:32.011Z,96649
2018-03-14T14:35:58.719Z,96654
2018-03-14T14:38:25.423Z,96648
2018-03-14T14:40:52.134Z,96639
2018-03-14T14:43:18.816Z,96648
2018-03-14T14:45:46.268Z,96639
2018-03-14T14:48:13.003Z,96638
2018-03-14T14:50:39.695Z,96637
2018-03-14T14:53:06.413Z,96630
2018-03-14T14:55:33.861Z,96627
2018-03-14T14:58:00.589Z,96629
2018-03-14T15:00:28.117Z,96632
2018-03-14T15:02:54.812Z,96636
2018-03-14T15:05:21.590Z,96635
2018-03-14T15:07:49.035Z,96632
2018-03-14T15:10:16.481Z,96634
2018-03-14T15:12:43.168Z,96627
2018-03-14T15:15:09.891Z,96635
2018-03-14T15:17:37.325Z,96636
2018-03-14T15:20:04.185Z,96634
2018-03-14T15:22:31.639Z,96638
2018-03-14T15:24:58.379Z,96641
2018-03-14T15:27:25.129Z,96641
2018-03-14T15:29:51.816Z,96645
2018-03-14T15:32:18.565Z,96641
2018-03-14T15:34:45.271Z,96643
2018-03-14T15:37:12.060Z,96649
2018-03-14T15:39:38.719Z,96647
2018-03-14T15:42:05.507Z,96642
2018-03-14T15:44:32.938Z,96641
2018-03-14T15:46:59.691Z,96652
2018-03-14T15:49:26.447Z,96643
2018-03-14T15:51:53.129Z,96642
2018-03-14T15:54:19.850Z,96648
2018-03-14T15:56:47.323Z,96652
2018-03-14T15:59:14.066Z,96651
2018-03-14T16:01:40.775Z,96649
2018-03-14T16:04:07.567Z,96648
2018-03-14T16:06:34.301Z,96654
2018-03-14T16:09:00.988Z,96650
2018-03-14T16:11:27.718Z,96649
2018-03-14T16:13:54.454Z,96646
2018-03-14T16:16:21.184Z,96648
2018-03-14T16:18:47.979Z,96650
2018-03-14T16:21:14.711Z,96651
2018-03-14T16:23:41.410Z,96655
2018-03-14T16:26:08.158Z,96652
2018-03-14T16:28:34.882Z,96652
2018-03-14T16:31:02.355Z,96652
2018-03-14T16:33:29.069Z,96649
2018-03-14T16:35:55.746Z,96648
2018-03-14T16:38:22.423Z,96649
2018-03-14T16:40:49.143Z,96654
2018-03-14T16:43:15.847Z,96650
2018-03-14T16:45:42.560Z,96655
2018-03-14T16:48:09.279Z,96658
2018-03-14T16:50:36.018Z,96655
2018-03-14T16:53:02.771Z,96653
2018-03-14T16:55:29.474Z,96657
2018-03-14T16:57:57.028Z,96657
2018-03-14T17:00:23.757Z,96657
2018-03-14T17:02:50.428Z,96658
2018-03-14T17:05:17.909Z,96660
2018-03-14T17:07:44.591Z,96670
2018-03-14T17:10:11.322Z,96667
2018-03-14T17:12:38.051Z,96674
2018-03-14T17:15:04.883Z,96674
2018-03-14T17:17:31.604Z,96670
2018-03-14T17:19:59.023Z,96674
2018-03-14T17:22:25.738Z,96679
2018-03-14T17:24:52.443Z,96686
2018-03-14T17:27:19.167Z,96684
2018-03-14T17:29:45.904Z,96681
2018-03-14T17:32:12.665Z,96683
2018-03-14T17:34:39.343Z,96683
2018-03-14T17:37:06.053Z,96682
2018-03-14T17:39:32.790Z,96688
2018-03-14T17:41:59.589Z,96687
2018-03-14T17:44:26.296Z,96685
2018-03-14T17:46:53.747Z,96685
2018-03-14T17:49:20.517Z,96687
2018-03-14T17:51:47.923Z,96687
2018-03-14T17:54:14.667Z,96687
2018-03-14T17:56:41.414Z,96684
2018-03-14T17:59:08.115Z,96690
2018-03-14T18:01:35.610Z,96693
2018-03-14T18:04:02.316Z,96707
2018-03-14T18:06:29.827Z,96704
2018-03-14T18:08:56.531Z,96709
2018-03-14T18:11:23.290Z,96716
2018-03-14T18:13:50.039Z,96710
2018-03-14T18:16:17.540Z,96713
2018-03-14T18:18:44.273Z,96712
2018-03-14T18:21:11.050Z,96710
2018-03-14T18:23:38.494Z,96714
2018-03-14T18:26:05.220Z,96710
2018-03-14T18:28:32.019Z,96715
2018-03-14T18:30:58.744Z,96718
2018-03-14T18:33:26.203Z,96712
2018-03-14T18:35:53.709Z,96713
2018-03-14T18:38:20.410Z,96716
2018-03-14T18:40:47.839Z,96714
2018-03-14T18:43:14.572Z,96718
2018-03-14T18:45:41.305Z,96727
2018-03-14T18:48:08.017Z,96728
2018-03-14T18:50:35.565Z,96733
2018-03-14T18:53:03.012Z,96743
2018-03-14T18:55:29.742Z,96741
2018-03-14T18:57:56.507Z,96738
2018-03-14T19:00:23.215Z,96738
2018-03-14T19:02:49.936Z,96740
2018-03-14T19:05:16.713Z,96742
2018-03-14T19:07:43.427Z,96739
2018-03-14T19:10:10.184Z,96742
2018-03-14T19:12:36.902Z,96739
2018-03-14T19:15:03.741Z,96742
2018-03-14T19:17:31.373Z,96746
2018-03-14T19:19:58.143Z,96745
2018-03-14T19:22:25.574Z,96752
2018-03-14T19:24:52.225Z,96755
2018-03-14T19:27:18.928Z,96759
2018-03-14T19:29:45.674Z,96758
2018-03-14T19:32:12.417Z,96752
2018-03-14T19:34:39.175Z,96755
2018-03-14T19:37:05.896Z,96756
2018-03-14T19:39:32.616Z,96759
2018-03-14T19:42:00.123Z,96764
2018-03-14T19:44:26.864Z,96767
2018-03-14T19:46:53.584Z,96767
2018-03-14T19:49:20.594Z,96771
2018-03-14T19:51:47.333Z,96769
2018-03-14T19:54:14.031Z,96778
2018-03-14T19:56:40.828Z,96779
2018-03-14T19:59:07.524Z,96790
2018-03-14T20:01:34.215Z,96779
2018-03-14T20:04:00.953Z,96777
2018-03-14T20:06:27.664Z,96784
2018-03-14T20:09:01.489Z,96790
2018-03-14T20:11:28.206Z,96792
2018-03-14T20:13:54.923Z,96793
2018-03-14T20:16:21.683Z,96798
2018-03-14T20:18:48.424Z,96796
2018-03-14T20:21:15.120Z,96806
2018-03-14T20:23:41.892Z,96806
2018-03-14T20:26:08.599Z,96812
2018-03-14T20:28:35.274Z,96809
2018-03-14T20:31:02.820Z,96806
2018-03-14T20:33:29.482Z,96809
2018-03-14T20:35:56.965Z,96805
2018-03-14T20:38:23.663Z,96806
2018-03-14T20:40:51.141Z,96800
2018-03-14T20:43:18.596Z,96806
2018-03-14T20:45:46.110Z,96806
2018-03-14T20:48:12.949Z,96805
2018-03-14T20:50:40.390Z,96802
2018-03-14T20:53:07.069Z,96793
2018-03-14T20:55:33.786Z,96797
2018-03-14T20:58:00.485Z,96798
2018-03-14T21:00:27.200Z,96798
2018-03-14T21:02:53.944Z,96801
2018-03-14T21:05:20.661Z,96798
2018-03-14T21:07:47.375Z,96794
2018-03-14T21:10:14.815Z,96800
2018-03-14T21:12:41.613Z,96795
2018-03-14T21:15:08.349Z,96797
2018-03-14T21:17:35.791Z,96802
2018-03-14T21:20:03.512Z,96802
2018-03-14T21:22:30.797Z,96806
2018-03-14T21:24:57.542Z,96803
2018-03-14T21:27:24.259Z,96801
2018-03-14T21:29:51.033Z,96802
2018-03-14T21:32:17.801Z,96803
2018-03-14T21:34:45.277Z,96798
2018-03-14T21:37:11.996Z,96803
2018-03-14T21:39:38.739Z,96800
2018-03-14T21:42:06.430Z,96798
2018-03-14T21:44:33.085Z,96795
2018-03-14T21:46:59.838Z,96800
2018-03-14T21:49:26.570Z,96796
2018-03-14T21:51:53.259Z,96796
2018-03-14T21:54:19.979Z,96798
2018-03-14T21:56:46.753Z,96796
2018-03-14T21:59:13.427Z,96797
2018-03-14T22:01:40.857Z,96793
2018-03-14T22:04:07.612Z,96792
2018-03-14T22:06:35.063Z,96791
2018-03-14T22:09:01.796Z,96794
2018-03-14T22:11:28.512Z,96792
2018-03-14T22:13:55.277Z,96795
2018-03-14T22:16:22.063Z,96800
2018-03-14T22:18:48.891Z,96806
2018-03-14T22:21:15.604Z,96801
2018-03-14T22:23:42.273Z,96800
2018-03-14T22:26:09.018Z,96803
2018-03-14T22:28:36.483Z,96804
2018-03-14T22:31:03.254Z,96806
2018-03-14T22:33:30.034Z,96801
2018-03-14T22:35:56.758Z,96801
2018-03-14T22:38:23.484Z,96797
2018-03-14T22:40:50.155Z,96790
2018-03-14T22:43:16.870Z,96786
2018-03-14T22:45:44.331Z,96781
2018-03-14T22:48:11.781Z,96777
2018-03-14T22:50:39.237Z,96774
2018-03-14T22:53:05.952Z,96770
2018-03-14T22:55:32.648Z,96767
2018-03-14T22:57:59.311Z,96774
2018-03-14T23:00:26.003Z,96766
2018-03-14T23:02:52.731Z,96762
2018-03-14T23:05:26.511Z,96765
2018-03-14T23:07:53.230Z,96765
2018-03-14T23:10:19.919Z,96768
2018-03-14T23:12:46.674Z,96771
2018-03-14T23:15:13.379Z,96770
2018-03-14T23:17:40.061Z,96764
2018-03-14T23:20:06.758Z,96767
2018-03-14T23:22:33.434Z,96770
2018-03-14T23:25:00.132Z,96759
2018-03-14T23:27:27.563Z,96769
2018-03-14T23:29:54.257Z,96770
2018-03-14T23:32:20.956Z,96769
2018-03-14T23:34:48.374Z,96773
2018-03-14T23:37:15.087Z,96774
2018-03-14T23:39:41.828Z,96769
2018-03-14T23:42:08.517Z,96771
2018-03-14T23:44:35.220Z,96761
2018-03-14T23:47:02.004Z,96758
2018-03-14T23:49:28.708Z,96759
2018-03-14T23:51:55.398Z,96751
2018-03-14T23:54:22.075Z,96749
2018-03-14T23:56:49.538Z,96751
2018-03-14T23:59:16.989Z,96748
